map of HKS home
HKS - Airport
Location
City:  Jackson, Mississippi, United States
Name:Hawkins Field
ICAO:KHKS
IATA:HKS
FAA LID:HKS

Details
Type:Airport (Airfield)
Use:Public/Civil
Latitude:3220'05"N (32.334778)
Longitude:9013'21"W (-90.222527)
Datum:WGS 1984
Elevation:341 ft (104 m)
Variation:0.95W (WMM2015 magnetic declination)
-0.11 annual change
Runways:2
Longest:5387 × 150 ft (1642 × 45.5 m), paved

Time
Time Zone:UTC-6 (DST-5)
Local Time:

Weather
METAR:KHKS 152053Z 35003KT 10SM CLR 07/M03 A3022 RMK AO2 SLP230 T00721028 56018
TAF:KHKS 151723Z 1518/1618 36007KT P6SM BKN150

Related Locations
Nearby:
Farthest:MQZ: 10976 mi / 17663 km
Margaret River [Margaret River Airport], WA, AU

Find:

   beyond  
but within

Other Information
Maps:
NOTAMs:
Links:
Sources:

  
flag of United States
flag of Mississippi
flag of Jackson
  

Airport Diagram

Airport diagram for HKS

Airport diagram PDF

Sectional Chart

Flight Planning
at skyvector.com

Satellite Image

Google Maps Satellite view

 

Copyright © 2004-2017 Karl L. Swartz. All rights reserved.
The Great Circle Mapper name and logo are trademarks of the Great Circle Mapper.
All other trademarks mentioned herein belong to their respective owners.
Please see credits for attibutions and further copyright information.

  Follow gcmap on Facebook Follow gcmap on Twitter Follow gcmap on Google+ GCmap on LinkedIn

hCard Microformat

Geo Microformat